Time;durP1;ratioP1;P1;durP2;ratioP2;P2;SDS_P1;SDS_P2;PMS_P1;PMS_P2;Temp;Humidity;BMP_temperature;BMP_pressure;BME280_temperature;BME280_humidity;BME280_pressure;Samples;Min_cycle;Max_cycle;Signal;HPM_P1;HPM_P2
2023/01/09 00:01:41;;;;;;;11.07;7.63;;;;;;;16.00;60.93;99581.31;5112162;28;20042;-61
2023/01/09 00:04:10;;;;;;;11.15;7.60;;;;;;;15.98;61.04;99584.16;5112119;28;20047;-59
2023/01/09 00:06:42;;;;;;;11.13;7.65;;;;;;;15.97;60.97;99584.28;5112043;28;20047;-59
2023/01/09 00:09:11;;;;;;;11.10;7.57;;;;;;;15.93;61.25;99581.06;5112003;28;20043;-59
2023/01/09 00:11:39;;;;;;;10.57;7.35;;;;;;;15.93;60.96;99582.91;5114082;28;20101;-59
2023/01/09 00:14:07;;;;;;;10.40;7.68;;;;;;;15.90;60.99;99592.06;5116547;28;20446;-59
2023/01/09 00:16:39;;;;;;;9.25;7.22;;;;;;;15.89;61.02;99589.53;5116349;28;20062;-61
2023/01/09 00:19:07;;;;;;;11.32;7.20;;;;;;;15.86;61.07;99587.97;5116218;28;20047;-59
2023/01/09 00:21:36;;;;;;;11.25;7.38;;;;;;;15.86;61.00;99587.13;5116311;28;20046;-60
2023/01/09 00:24:04;;;;;;;10.70;6.95;;;;;;;15.83;61.13;99585.59;5116263;28;20048;-61
2023/01/09 00:26:33;;;;;;;9.90;7.07;;;;;;;15.82;61.00;99578.47;5116102;28;20377;-59
2023/01/09 00:29:01;;;;;;;9.40;6.85;;;;;;;15.80;61.00;99575.09;5116072;28;20039;-60
2023/01/09 00:31:30;;;;;;;9.80;6.60;;;;;;;15.80;60.96;99580.47;5116074;28;20071;-58
2023/01/09 00:34:02;;;;;;;9.98;6.45;;;;;;;15.77;60.96;99575.38;5097637;28;20043;-59
2023/01/09 00:36:30;;;;;;;11.10;7.43;;;;;;;15.76;60.87;99573.69;5115989;28;20482;-59
2023/01/09 00:38:59;;;;;;;8.65;6.43;;;;;;;15.74;60.88;99564.94;5116076;28;20071;-59
2023/01/09 00:41:31;;;;;;;9.52;7.15;;;;;;;15.73;60.78;99564.06;5115648;28;20060;-59
2023/01/09 00:44:03;;;;;;;8.77;6.20;;;;;;;15.71;61.13;99560.66;5115868;28;20104;-59
2023/01/09 00:46:33;;;;;;;11.50;7.18;;;;;;;15.70;60.99;99563.50;5097316;28;20061;-60
2023/01/09 00:49:06;;;;;;;10.48;7.00;;;;;;;15.69;60.96;99553.72;5115611;28;20480;-60
2023/01/09 00:51:35;;;;;;;10.43;6.90;;;;;;;15.67;61.14;99561.94;5115647;28;20040;-59
2023/01/09 00:54:04;;;;;;;10.02;6.88;;;;;;;15.66;61.30;99562.09;5097271;28;20065;-59
2023/01/09 00:56:34;;;;;;;10.27;6.75;;;;;;;15.64;61.08;99554.16;5115475;28;20054;-59
2023/01/09 00:59:03;;;;;;;9.77;6.90;;;;;;;15.63;61.21;99552.47;5115477;28;20044;-59
2023/01/09 01:01:31;;;;;;;9.88;6.57;;;;;;;15.60;60.99;99547.34;5115612;28;20154;-59
2023/01/09 01:07:37;;;;;;;10.38;7.05;;;;;;;15.60;61.14;99551.84;5115585;28;20048;-60
2023/01/09 01:09:35;;;;;;;9.75;5.95;;;;;;;15.56;61.13;99534.31;5115181;28;20480;-59
2023/01/09 01:12:05;;;;;;;9.13;6.40;;;;;;;15.54;60.87;99537.16;5115250;28;20054;-59
2023/01/09 01:14:34;;;;;;;10.30;6.80;;;;;;;15.55;60.96;99548.75;5115223;28;20039;-59
2023/01/09 01:17:03;;;;;;;9.43;6.43;;;;;;;15.54;61.09;99541.66;5115112;28;20040;-59
2023/01/09 01:19:31;;;;;;;9.35;6.65;;;;;;;15.52;61.14;99539.13;5115135;28;20127;-60
2023/01/09 01:22:04;;;;;;;9.60;6.72;;;;;;;15.51;60.97;99528.50;5114599;28;20075;-59
2023/01/09 01:24:32;;;;;;;9.02;6.10;;;;;;;15.49;61.00;99531.34;5114430;28;20122;-59
2023/01/09 01:27:00;;;;;;;10.38;6.07;;;;;;;15.49;60.86;99527.81;5114910;28;20115;-60
2023/01/09 01:29:29;;;;;;;9.35;6.72;;;;;;;15.48;61.16;99528.81;5114985;28;20039;-60
2023/01/09 01:31:58;;;;;;;8.63;6.05;;;;;;;15.47;61.09;99525.28;5114789;28;20051;-60
2023/01/09 01:34:28;;;;;;;9.20;6.35;;;;;;;15.44;61.05;99522.84;5114715;28;20118;-59
2023/01/09 01:36:56;;;;;;;8.88;5.95;;;;;;;15.43;61.23;99519.31;5096488;28;20134;-59
2023/01/09 01:39:26;;;;;;;8.68;5.97;;;;;;;15.42;61.08;99520.31;5114753;28;20048;-59
2023/01/09 01:41:54;;;;;;;9.05;6.38;;;;;;;15.41;61.14;99515.91;5114451;28;20052;-59
2023/01/09 01:44:57;;;;;;;9.45;6.30;;;;;;;15.40;61.00;99500.78;5114635;28;20043;-59
2023/01/09 01:47:32;;;;;;;8.68;5.68;;;;;;;15.39;60.92;99496.41;5096241;28;20435;-59
2023/01/09 01:50:04;;;;;;;8.95;6.32;;;;;;;15.37;61.01;99494.84;5114453;28;20086;-59
2023/01/09 01:52:35;;;;;;;8.02;5.80;;;;;;;15.37;61.17;99489.47;5114501;28;20043;-59
2023/01/09 01:55:08;;;;;;;8.70;6.07;;;;;;;15.33;61.09;99482.69;5114252;28;20519;-60
2023/01/09 01:57:40;;;;;;;7.97;5.45;;;;;;;15.34;61.22;99490.59;5114338;28;20048;-59
2023/01/09 02:00:10;;;;;;;7.80;5.80;;;;;;;15.31;61.21;99471.22;5114499;28;20050;-59
2023/01/09 02:02:38;;;;;;;7.88;5.47;;;;;;;15.32;61.24;99481.84;5096004;28;20047;-59
2023/01/09 02:05:07;;;;;;;8.52;5.93;;;;;;;15.29;61.23;99476.75;5114272;28;20140;-59
2023/01/09 02:07:35;;;;;;;8.98;5.72;;;;;;;15.29;61.31;99483.97;5114120;28;20055;-59
2023/01/09 02:10:06;;;;;;;8.70;5.88;;;;;;;15.29;60.99;99478.59;5113970;28;20465;-60
2023/01/09 02:12:34;;;;;;;8.23;5.55;;;;;;;15.26;61.15;99468.97;5114133;28;20043;-59
2023/01/09 02:15:05;;;;;;;8.40;5.97;;;;;;;15.26;61.04;99468.13;5114024;28;20741;-59
2023/01/09 02:17:51;;;;;;;8.15;5.78;;;;;;;15.25;61.10;99467.28;5113835;28;20048;-59
2023/01/09 02:20:38;;;;;;;9.02;5.60;;;;;;;15.23;61.09;99463.88;5113844;28;20051;-60
2023/01/09 02:23:44;;;;;;;8.75;5.88;;;;;;;15.22;61.19;99455.97;5114062;28;20039;-60
2023/01/09 02:26:47;;;;;;;9.32;5.97;;;;;;;15.20;61.25;99461.47;5113745;28;20117;-60
2023/01/09 02:29:49;;;;;;;8.98;5.80;;;;;;;15.20;61.19;99458.78;5113873;28;20123;-60
2023/01/09 02:32:33;;;;;;;8.95;5.88;;;;;;;15.18;61.09;99450.03;5069411;28;20052;-59
2023/01/09 02:35:11;;;;;;;8.93;6.13;;;;;;;15.17;61.08;99448.34;5113345;28;20090;-59
2023/01/09 02:37:48;;;;;;;7.95;5.60;;;;;;;15.16;60.91;99438.59;5113636;28;20043;-59
2023/01/09 02:40:25;;;;;;;8.40;5.82;;;;;;;15.15;60.99;99444.91;5113499;28;20100;-59
2023/01/09 02:42:55;;;;;;;8.95;5.72;;;;;;;15.15;60.80;99442.22;5095022;28;20479;-59
2023/01/09 02:45:23;;;;;;;8.23;5.32;;;;;;;15.13;60.97;99444.22;5113495;28;20050;-59
2023/01/09 02:47:53;;;;;;;9.55;6.30;;;;;;;15.14;61.02;99440.53;5113324;28;20048;-58
2023/01/09 02:50:24;;;;;;;8.40;5.40;;;;;;;15.11;61.05;99432.78;5113180;28;20068;-58
2023/01/09 02:53:25;;;;;;;8.57;5.90;;;;;;;15.12;61.00;99445.22;5113272;28;20126;-58
2023/01/09 02:56:05;;;;;;;9.02;6.10;;;;;;;15.10;60.92;99439.97;5088894;28;20056;-62
2023/01/09 02:58:49;;;;;;;8.95;5.53;;;;;;;15.07;61.02;99434.06;5113169;28;20044;-58
2023/01/09 03:01:27;;;;;;;8.40;5.63;;;;;;;15.08;60.77;99433.06;5113250;28;20386;-59
2023/01/09 03:04:08;;;;;;;8.88;5.80;;;;;;;15.08;60.82;99427.69;5113128;28;20097;-59
2023/01/09 03:06:45;;;;;;;8.02;5.30;;;;;;;15.05;60.97;99422.56;5112751;28;20055;-58
2023/01/09 03:09:19;;;;;;;8.10;5.38;;;;;;;15.05;60.89;99417.19;5112978;28;20564;-59
2023/01/09 03:11:50;;;;;;;8.32;5.68;;;;;;;15.05;61.00;99406.47;5112796;28;20492;-59
2023/01/09 03:14:23;;;;;;;8.48;5.45;;;;;;;15.03;60.94;99411.97;5112871;28;20051;-59
2023/01/09 03:16:56;;;;;;;8.57;5.63;;;;;;;15.01;60.99;99405.06;5112738;28;20592;-59
2023/01/09 03:19:28;;;;;;;;;;;;;;;15.02;60.85;99412.97;5113310;28;20438;-59
2023/01/09 03:21:57;;;;;;;9.60;5.28;;;;;;;15.01;60.92;99415.81;5112696;28;19924;-59
2023/01/09 03:24:25;;;;;;;8.55;5.80;;;;;;;15.01;60.83;99416.66;5112734;28;20485;-59
2023/01/09 03:26:54;;;;;;;9.05;5.40;;;;;;;15.00;60.91;99408.75;5112565;28;20143;-59
2023/01/09 03:29:22;;;;;;;8.57;5.70;;;;;;;14.99;60.96;99417.78;5112608;28;20377;-59
2023/01/09 03:31:51;;;;;;;9.43;5.75;;;;;;;14.99;60.80;99409.72;5112517;28;20058;-59
2023/01/09 03:34:19;;;;;;;9.27;5.88;;;;;;;14.98;60.96;99416.09;5112492;28;20079;-58
2023/01/09 03:36:49;;;;;;;8.55;5.45;;;;;;;14.97;60.77;99414.41;5112465;28;20054;-60
2023/01/09 03:39:17;;;;;;;10.05;6.03;;;;;;;14.97;60.88;99406.34;5112395;28;20058;-59
2023/01/09 03:41:45;;;;;;;9.80;5.97;;;;;;;14.96;60.81;99402.81;5112229;28;20056;-60
2023/01/09 03:44:13;;;;;;;9.15;5.60;;;;;;;14.95;60.74;99394.88;5112270;28;20040;-59
2023/01/09 03:46:41;;;;;;;9.90;6.25;;;;;;;14.95;60.84;99389.50;5111816;28;20533;-59
2023/01/09 03:49:09;;;;;;;10.75;6.30;;;;;;;14.93;60.86;99391.50;5112413;28;20066;-60
2023/01/09 03:51:37;;;;;;;8.20;5.57;;;;;;;14.92;60.81;99390.63;5112216;28;20046;-58
2023/01/09 03:54:07;;;;;;;7.85;5.60;;;;;;;14.92;60.82;99387.09;5112343;28;20122;-60
2023/01/09 03:56:35;;;;;;;8.38;5.20;;;;;;;14.91;60.88;99382.72;5112140;28;20456;-60
2023/01/09 03:59:03;;;;;;;9.80;5.68;;;;;;;14.90;60.82;99387.25;5112212;28;20052;-60
2023/01/09 04:01:31;;;;;;;9.25;5.90;;;;;;;14.88;60.79;99382.03;5112206;28;20122;-60
2023/01/09 04:04:00;;;;;;;9.40;5.85;;;;;;;14.88;60.95;99387.41;5112232;28;20044;-59
2023/01/09 04:06:28;;;;;;;8.15;5.45;;;;;;;14.87;60.74;99382.19;5112158;28;20048;-58
2023/01/09 04:08:56;;;;;;;8.73;5.72;;;;;;;14.86;60.87;99380.44;5112127;28;20480;-59
2023/01/09 04:11:26;;;;;;;8.57;5.55;;;;;;;14.84;60.81;99377.91;5093794;28;20047;-59
2023/01/09 04:13:54;;;;;;;8.68;5.63;;;;;;;14.83;60.84;99381.59;5093861;28;20135;-58
2023/01/09 04:16:22;;;;;;;9.00;5.65;;;;;;;14.83;60.85;99384.28;5111948;28;20047;-59
2023/01/09 04:18:50;;;;;;;8.70;5.70;;;;;;;14.83;60.94;99381.59;5093649;28;20453;-59
2023/01/09 04:21:18;;;;;;;7.93;5.85;;;;;;;14.83;60.84;99383.44;5093765;28;20074;-59
2023/01/09 04:23:46;;;;;;;8.40;5.35;;;;;;;14.82;60.77;99384.41;5111875;28;20043;-59
2023/01/09 04:26:15;;;;;;;8.15;5.57;;;;;;;14.82;60.93;99385.25;5112088;28;20051;-59
2023/01/09 04:28:47;;;;;;;9.07;5.85;;;;;;;14.81;60.80;99393.47;5112140;28;20043;-59
2023/01/09 04:31:15;;;;;;;8.98;5.90;;;;;;;14.80;60.80;99381.88;5111788;28;20074;-59
2023/01/09 04:33:43;;;;;;;8.50;5.93;;;;;;;14.79;60.73;99385.56;5093598;28;20052;-59
2023/01/09 04:36:12;;;;;;;8.55;5.40;;;;;;;14.80;60.61;99386.41;5093573;28;20051;-59
2023/01/09 04:38:40;;;;;;;8.48;5.63;;;;;;;14.80;61.02;99386.41;5112020;28;20036;-59
2023/01/09 04:41:08;;;;;;;8.57;5.13;;;;;;;14.82;61.41;99392.47;5111625;28;20396;-58
2023/01/09 04:43:36;;;;;;;8.57;4.95;;;;;;;14.86;61.69;99389.38;5111794;28;20040;-59
2023/01/09 04:46:06;;;;;;;8.07;5.10;;;;;;;14.96;62.06;99396.56;5111746;28;20069;-59
2023/01/09 04:48:34;;;;;;;8.15;5.13;;;;;;;15.07;62.09;99396.44;5111789;28;20450;-59
2023/01/09 04:51:02;;;;;;;7.88;5.00;;;;;;;15.16;62.06;99398.28;5111530;28;20043;-59
2023/01/09 04:53:31;;;;;;;7.07;5.10;;;;;;;15.27;61.95;99389.22;5111756;28;20050;-59
2023/01/09 04:55:59;;;;;;;8.15;5.15;;;;;;;15.39;61.90;99402.34;5111691;28;20054;-60
2023/01/09 04:58:27;;;;;;;6.63;4.40;;;;;;;15.50;61.65;99395.97;5114757;28;20043;-59
2023/01/09 05:00:55;;;;;;;8.27;5.10;;;;;;;15.62;61.61;99388.63;5115535;28;20051;-59
2023/01/09 05:03:25;;;;;;;7.93;4.95;;;;;;;15.72;61.44;99384.06;5115217;28;20059;-59
2023/01/09 05:05:53;;;;;;;7.85;4.75;;;;;;;15.82;61.47;99387.56;5115802;28;20506;-61
2023/01/09 05:08:21;;;;;;;7.22;4.88;;;;;;;15.93;61.28;99382.03;5115440;28;20446;-59
2023/01/09 05:10:49;;;;;;;7.18;4.80;;;;;;;16.02;61.09;99380.31;5115318;28;20373;-59
2023/01/09 05:13:17;;;;;;;7.35;4.88;;;;;;;16.11;60.98;99374.00;5115111;28;20105;-59
2023/01/09 05:15:45;;;;;;;8.05;4.55;;;;;;;16.21;60.87;99379.34;5115131;28;20572;-59
2023/01/09 05:18:13;;;;;;;7.07;4.80;;;;;;;16.28;60.65;99375.06;5115081;28;20059;-59
2023/01/09 05:20:43;;;;;;;8.27;4.70;;;;;;;16.33;60.71;99380.84;5115251;28;20110;-59
2023/01/09 05:23:11;;;;;;;7.65;4.75;;;;;;;16.37;60.63;99373.31;5115168;28;20047;-59
2023/01/09 05:25:39;;;;;;;8.32;5.53;;;;;;;16.39;60.52;99363.25;5114890;28;20047;-59
2023/01/09 05:28:07;;;;;;;7.13;4.53;;;;;;;16.40;60.59;99367.63;5096532;28;20051;-59
2023/01/09 05:30:36;;;;;;;7.20;5.10;;;;;;;16.38;60.56;99359.69;5114861;28;20724;-59
2023/01/09 05:33:04;;;;;;;7.85;4.90;;;;;;;16.40;60.77;99362.25;5114693;28;20075;-59
2023/01/09 05:35:32;;;;;;;7.65;4.80;;;;;;;16.38;60.71;99365.09;5114651;28;20047;-59
2023/01/09 05:38:01;;;;;;;6.97;4.90;;;;;;;16.36;60.68;99361.72;5114744;28;20044;-59
2023/01/09 05:40:29;;;;;;;7.53;4.95;;;;;;;16.35;60.59;99360.00;5114631;28;20103;-59
2023/01/09 05:43:07;;;;;;;7.65;4.93;;;;;;;16.33;60.75;99359.31;5114361;28;20073;-60
2023/01/09 05:45:35;;;;;;;9.35;5.57;;;;;;;16.31;60.72;99361.31;5114397;28;20283;-59
2023/01/09 05:48:03;;;;;;;7.38;5.00;;;;;;;16.30;60.61;99356.91;5114393;28;20112;-60
2023/01/09 05:50:31;;;;;;;7.18;4.78;;;;;;;16.27;60.87;99349.16;5095960;28;20059;-59
2023/01/09 05:53:01;;;;;;;7.88;5.20;;;;;;;16.24;60.80;99352.16;5114223;28;20048;-59
2023/01/09 05:55:29;;;;;;;7.40;4.93;;;;;;;16.21;60.90;99347.06;5114118;28;20054;-60
2023/01/09 05:57:57;;;;;;;6.95;4.72;;;;;;;16.21;60.81;99355.13;5114064;28;20079;-60
2023/01/09 06:00:25;;;;;;;7.78;5.00;;;;;;;16.18;60.96;99367.03;5114222;28;20114;-60
2023/01/09 06:02:53;;;;;;;7.63;5.20;;;;;;;16.14;61.01;99371.03;5114120;28;20139;-59
2023/01/09 06:05:22;;;;;;;8.18;4.97;;;;;;;16.12;60.89;99369.50;5114164;28;20039;-59
2023/01/09 06:07:50;;;;;;;7.53;5.00;;;;;;;16.09;60.80;99365.25;5113997;28;20047;-59
2023/01/09 06:10:19;;;;;;;7.40;5.13;;;;;;;16.07;60.78;99356.47;5113322;28;20126;-59
2023/01/09 06:12:49;;;;;;;7.60;5.40;;;;;;;16.04;60.75;99356.78;5113961;28;20069;-59
2023/01/09 06:15:19;;;;;;;7.07;4.88;;;;;;;16.01;60.64;99360.59;5113892;28;20477;-59
2023/01/09 06:17:47;;;;;;;8.02;5.10;;;;;;;15.99;60.61;99359.91;5113772;28;20051;-60
2023/01/09 06:20:16;;;;;;;7.68;5.32;;;;;;;15.96;60.61;99370.97;5113750;28;20476;-60
2023/01/09 06:22:44;;;;;;;7.82;5.05;;;;;;;15.94;60.50;99370.28;5113901;28;20377;-59
2023/01/09 06:25:13;;;;;;;8.15;5.28;;;;;;;15.90;60.55;99366.16;5113507;28;20471;-60
2023/01/09 06:27:43;;;;;;;6.75;5.05;;;;;;;15.87;60.45;99366.47;5113621;28;20048;-60
2023/01/09 06:30:12;;;;;;;8.48;5.32;;;;;;;15.85;60.41;99373.84;5113598;28;20436;-60
2023/01/09 06:32:40;;;;;;;9.15;5.32;;;;;;;15.83;60.21;99391.97;5113240;28;20051;-60
2023/01/09 06:35:09;;;;;;;8.10;5.72;;;;;;;15.81;60.25;99383.19;5113174;28;20045;-60
2023/01/09 06:37:37;;;;;;;8.23;5.47;;;;;;;15.79;60.10;99382.50;5112909;28;20039;-60
2023/01/09 06:40:07;;;;;;;9.90;5.60;;;;;;;15.77;60.14;99391.72;5094694;28;20057;-60
2023/01/09 06:42:35;;;;;;;8.32;5.45;;;;;;;15.73;59.97;99410.81;5094316;28;20059;-60
2023/01/09 06:45:06;;;;;;;9.20;5.35;;;;;;;15.71;59.79;99393.13;5112772;28;20048;-59
2023/01/09 06:47:34;;;;;;;8.93;5.63;;;;;;;15.68;59.94;99388.91;5112824;28;20050;-60
2023/01/09 06:50:02;;;;;;;7.72;5.53;;;;;;;15.66;59.72;99396.25;5112437;28;20100;-60
2023/01/09 06:52:30;;;;;;;8.20;5.40;;;;;;;15.65;59.59;99399.09;5112751;28;20071;-60
2023/01/09 06:54:58;;;;;;;7.93;5.53;;;;;;;15.63;59.59;99401.06;5112655;28;20043;-60
2023/01/09 06:57:27;;;;;;;9.13;5.95;;;;;;;15.59;59.57;99396.94;5112698;28;20119;-60
2023/01/09 06:59:55;;;;;;;9.45;6.40;;;;;;;15.54;59.41;99393.84;5112735;28;20055;-61
2023/01/09 07:02:25;;;;;;;9.60;6.53;;;;;;;15.50;59.56;99390.59;5112799;28;20512;-60
2023/01/09 07:04:53;;;;;;;9.52;6.35;;;;;;;15.48;59.47;99400.66;5112935;28;20071;-59
2023/01/09 07:07:21;;;;;;;9.80;6.53;;;;;;;15.45;59.45;99399.09;5112862;28;20055;-59
2023/01/09 07:09:49;;;;;;;10.48;6.63;;;;;;;15.44;59.65;99391.16;5094515;28;20289;-60
2023/01/09 07:12:18;;;;;;;11.05;6.30;;;;;;;15.43;59.56;99386.78;5111582;28;20416;-59
2023/01/09 07:14:46;;;;;;;9.65;6.50;;;;;;;15.41;59.75;99384.25;5110659;28;20051;-60
2023/01/09 07:17:14;;;;;;;10.20;6.32;;;;;;;15.40;59.65;99379.88;5075635;28;20565;-59
2023/01/09 07:19:43;;;;;;;9.88;6.22;;;;;;;15.39;59.65;99393.44;5110504;28;20039;-60
2023/01/09 07:22:12;;;;;;;8.95;6.40;;;;;;;15.37;59.77;99377.47;5110419;28;20096;-59
2023/01/09 07:24:40;;;;;;;11.02;6.97;;;;;;;15.36;59.36;99377.63;5111322;28;20123;-59
2023/01/09 07:27:08;;;;;;;8.90;5.55;;;;;;;15.34;59.78;99379.59;5111444;28;20484;-59
2023/01/09 07:29:36;;;;;;;9.10;6.03;;;;;;;15.31;59.75;99378.03;5112485;28;20130;-60
2023/01/09 07:32:04;;;;;;;8.48;6.05;;;;;;;15.31;59.64;99377.19;5112275;28;20047;-59
2023/01/09 07:34:33;;;;;;;9.02;5.88;;;;;;;15.29;59.74;99382.72;5112298;28;20047;-60
2023/01/09 07:37:02;;;;;;;8.63;5.97;;;;;;;15.29;59.75;99384.56;5112283;28;20096;-60
2023/01/09 07:39:30;;;;;;;9.68;6.20;;;;;;;15.27;59.83;99381.16;5112353;28;20455;-60
2023/01/09 07:41:59;;;;;;;8.10;6.05;;;;;;;15.25;59.64;99365.19;5112104;28;20527;-60
2023/01/09 07:44:27;;;;;;;9.45;6.03;;;;;;;15.25;59.49;99358.94;5112128;28;20047;-60
2023/01/09 07:46:55;;;;;;;11.35;6.43;;;;;;;15.22;59.53;99354.72;5112037;28;20060;-60
2023/01/09 07:49:23;;;;;;;9.38;6.18;;;;;;;15.14;59.41;99352.75;5112052;28;20050;-59
2023/01/09 07:51:53;;;;;;;9.98;6.72;;;;;;;15.19;59.48;99365.75;5093840;28;20104;-61
2023/01/09 07:54:23;;;;;;;9.75;5.70;;;;;;;15.18;59.28;99364.06;5111938;28;20472;-59
2023/01/09 07:56:51;;;;;;;8.52;5.80;;;;;;;15.17;59.33;99362.38;5111818;28;20051;-60
2023/01/09 07:59:19;;;;;;;9.85;5.50;;;;;;;15.15;59.28;99350.91;5111887;28;20054;-60
2023/01/09 08:01:48;;;;;;;9.05;6.40;;;;;;;15.11;59.31;99363.78;5111633;28;20050;-60
2023/01/09 08:04:16;;;;;;;9.52;5.82;;;;;;;15.13;59.50;99361.78;5111957;28;20104;-61
2023/01/09 08:06:44;;;;;;;11.73;6.20;;;;;;;15.15;59.90;99361.66;5111833;28;20049;-60
2023/01/09 08:09:13;;;;;;;12.27;6.18;;;;;;;15.14;60.12;99354.59;5112186;28;20047;-60
2023/01/09 08:11:43;;;;;;;12.73;6.15;;;;;;;15.13;59.93;99358.25;5111536;28;20101;-61
2023/01/09 08:14:11;;;;;;;8.27;5.30;;;;;;;15.13;59.93;99352.88;5111712;28;20040;-60
2023/01/09 08:16:39;;;;;;;9.98;6.50;;;;;;;15.11;59.81;99358.41;5093387;28;20040;-61
2023/01/09 08:19:10;;;;;;;9.35;5.85;;;;;;;15.09;59.77;99362.25;5110630;28;20436;-61
2023/01/09 08:21:39;;;;;;;9.40;6.07;;;;;;;15.08;59.53;99361.38;5110618;28;20485;-59
2023/01/09 08:24:09;;;;;;;10.07;5.68;;;;;;;15.06;59.62;99358.00;5111625;28;20561;-61
2023/01/09 08:26:37;;;;;;;11.07;5.68;;;;;;;15.05;59.77;99350.06;5111481;28;20047;-60
2023/01/09 08:29:07;;;;;;;9.13;6.05;;;;;;;15.03;59.59;99334.09;5092944;28;20484;-60
2023/01/09 08:31:35;;;;;;;9.63;5.90;;;;;;;15.03;59.54;99338.63;5111147;28;20074;-61
2023/01/09 08:34:04;;;;;;;9.13;5.88;;;;;;;15.02;59.46;99347.69;5096641;28;20046;-60
2023/01/09 08:36:32;;;;;;;9.05;5.78;;;;;;;15.01;59.37;99372.84;5114990;28;20047;-60
2023/01/09 08:39:00;;;;;;;9.13;5.80;;;;;;;14.99;59.19;99397.16;5114948;28;20075;-60
2023/01/09 08:47:08;;;;;;;10.05;5.90;;;;;;;14.92;59.30;99353.06;5114806;28;20055;-60
2023/01/09 08:49:38;;;;;;;9.27;6.15;;;;;;;14.91;59.26;99361.25;5114868;28;20052;-60
2023/01/09 08:52:07;;;;;;;9.27;5.85;;;;;;;14.91;59.27;99369.31;5096489;28;20043;-59
2023/01/09 08:54:35;;;;;;;10.20;5.95;;;;;;;14.88;59.36;99363.25;5114860;28;20156;-60
2023/01/09 08:57:04;;;;;;;9.20;5.75;;;;;;;14.89;59.49;99370.28;5114738;28;20051;-59
2023/01/09 08:59:33;;;;;;;10.00;5.93;;;;;;;14.85;59.50;99358.13;5114751;28;20443;-59
2023/01/09 09:02:01;;;;;;;9.02;5.90;;;;;;;14.86;59.40;99370.59;5114455;28;20481;-59
2023/01/09 09:04:30;;;;;;;9.50;6.05;;;;;;;14.85;59.45;99373.38;5114824;28;20408;-59
2023/01/09 09:06:58;;;;;;;9.45;5.63;;;;;;;14.84;59.32;99360.97;5114651;28;20469;-59
2023/01/09 09:09:26;;;;;;;8.93;5.88;;;;;;;14.83;59.39;99353.91;5114619;28;20129;-60
2023/01/09 09:11:54;;;;;;;9.77;5.80;;;;;;;14.81;59.33;99335.25;5114700;28;20050;-59
2023/01/09 09:17:10;;;;;;;8.43;5.53;;;;;;;14.79;59.50;99331.88;5114533;28;20066;-59
2023/01/09 09:19:41;;;;;;;8.65;5.78;;;;;;;14.79;59.65;99329.19;5114420;28;20051;-60
2023/01/09 09:22:09;;;;;;;8.73;5.63;;;;;;;14.78;59.58;99326.66;5114454;28;20559;-59
2023/01/09 09:24:37;;;;;;;9.30;5.80;;;;;;;14.77;59.52;99322.25;5114364;28;20180;-60
2023/01/09 09:27:05;;;;;;;8.98;6.10;;;;;;;14.76;59.55;99321.38;5114251;28;20047;-60
2023/01/09 09:29:33;;;;;;;9.57;6.28;;;;;;;14.76;59.48;99326.75;5114365;28;20051;-59
2023/01/09 09:32:02;;;;;;;9.10;5.97;;;;;;;14.75;59.39;99325.06;5114295;28;20097;-59
2023/01/09 09:34:31;;;;;;;10.20;6.22;;;;;;;14.74;59.55;99318.00;5114029;28;20100;-59
2023/01/09 09:36:59;;;;;;;8.55;5.50;;;;;;;14.73;59.49;99313.63;5114100;28;20059;-59
2023/01/09 09:39:28;;;;;;;8.93;5.43;;;;;;;14.72;59.60;99314.63;5113814;28;20052;-60
2023/01/09 09:45:13;;;;;;;9.88;6.20;;;;;;;14.71;59.57;99296.81;5113388;28;20039;-61
2023/01/09 09:47:52;;;;;;;8.50;5.22;;;;;;;14.70;59.56;99305.88;5095456;28;20051;-61
2023/01/09 09:50:40;;;;;;;8.60;6.07;;;;;;;14.69;59.54;99309.53;5114109;28;20104;-59
2023/01/09 09:53:18;;;;;;;9.23;5.60;;;;;;;14.69;59.77;99296.13;5113757;28;20503;-59
2023/01/09 09:55:49;;;;;;;8.40;5.90;;;;;;;14.67;59.77;99286.50;5095324;28;20062;-60
2023/01/09 09:58:24;;;;;;;8.40;5.72;;;;;;;14.66;59.75;99282.13;5113685;28;20091;-60
2023/01/09 10:00:54;;;;;;;10.15;6.05;;;;;;;14.64;59.62;99284.94;5114003;28;20100;-60
2023/01/09 10:03:28;;;;;;;8.98;6.18;;;;;;;14.65;59.83;99300.06;5095307;28;20051;-59
2023/01/09 10:06:07;;;;;;;8.55;5.60;;;;;;;14.64;59.79;99298.38;5113666;28;20517;-60
2023/01/09 10:08:42;;;;;;;9.18;6.18;;;;;;;14.64;59.71;99309.09;5113442;28;20044;-59
2023/01/09 10:11:15;;;;;;;9.20;6.50;;;;;;;14.62;59.70;99294.97;5114149;28;20043;-59
2023/01/09 10:16:51;;;;;;;8.60;6.03;;;;;;;14.60;59.69;99278.19;5113649;28;20377;-60
2023/01/09 10:19:33;;;;;;;8.45;6.15;;;;;;;14.58;59.54;99288.22;5095447;28;20519;-59
2023/01/09 10:22:14;;;;;;;9.10;6.10;;;;;;;14.57;59.55;99286.50;5095229;28;20047;-59
2023/01/09 10:25:01;;;;;;;8.57;5.93;;;;;;;14.56;59.54;99295.53;5113711;28;20047;-59
2023/01/09 10:27:41;;;;;;;9.73;6.10;;;;;;;14.54;59.61;99286.78;5113442;28;20044;-59
2023/01/09 10:30:26;;;;;;;11.55;6.80;;;;;;;14.53;59.60;99272.53;5113611;28;20131;-60
2023/01/09 10:33:02;;;;;;;8.82;5.82;;;;;;;14.53;59.53;99267.16;5113484;28;20118;-59
2023/01/09 10:36:07;;;;;;;9.38;6.47;;;;;;;14.51;59.51;99258.41;5113330;28;20488;-59
2023/01/09 10:38:46;;;;;;;9.77;6.47;;;;;;;14.51;59.67;99257.56;5113403;28;20048;-59
2023/01/09 10:41:21;;;;;;;8.23;5.50;;;;;;;14.50;59.56;99253.19;5113137;28;20441;-59
2023/01/09 10:43:55;;;;;;;9.68;5.97;;;;;;;14.49;59.64;99256.88;5113325;28;20047;-59
2023/01/09 10:46:29;;;;;;;10.38;6.25;;;;;;;14.47;59.71;99245.41;5113071;28;20112;-61
2023/01/09 10:49:01;;;;;;;8.90;6.03;;;;;;;14.48;59.70;99247.13;5113388;28;20116;-59
2023/01/09 10:51:36;;;;;;;8.93;6.28;;;;;;;14.46;59.66;99249.91;5094981;28;20047;-60
2023/01/09 10:54:13;;;;;;;9.18;5.95;;;;;;;14.45;59.77;99244.69;5094879;28;20100;-60
2023/01/09 10:56:47;;;;;;;9.27;5.90;;;;;;;14.46;59.65;99246.38;5094617;28;20329;-59
2023/01/09 10:59:15;;;;;;;9.32;6.30;;;;;;;14.44;59.82;99245.66;5094686;28;20074;-59
2023/01/09 11:01:43;;;;;;;9.57;6.35;;;;;;;14.43;59.78;99233.22;5113086;28;20488;-59
2023/01/09 11:04:23;;;;;;;8.50;6.05;;;;;;;14.42;59.73;99236.91;5113141;28;20067;-59
2023/01/09 11:06:56;;;;;;;8.90;5.97;;;;;;;14.40;59.82;99222.78;5094697;28;20055;-60
2023/01/09 11:09:26;;;;;;;9.60;6.32;;;;;;;14.41;59.71;99219.13;5094610;28;20055;-60
2023/01/09 11:11:54;;;;;;;9.52;6.28;;;;;;;14.41;59.79;99219.13;5094565;28;20048;-60
2023/01/09 11:14:30;;;;;;;9.15;6.30;;;;;;;14.40;59.80;99214.75;5094495;28;20075;-60
2023/01/09 11:17:01;;;;;;;8.52;5.95;;;;;;;14.39;59.88;99205.00;5112695;28;20126;-61
2023/01/09 11:19:29;;;;;;;10.00;6.10;;;;;;;14.38;59.81;99192.56;5112733;28;20047;-60
2023/01/09 11:22:08;;;;;;;8.98;6.28;;;;;;;14.36;59.89;99195.38;5112705;28;20055;-60
2023/01/09 11:24:38;;;;;;;10.40;6.15;;;;;;;14.38;59.84;99197.91;5112707;28;20088;-60
2023/01/09 11:27:23;;;;;;;9.10;6.28;;;;;;;14.36;59.97;99192.69;5112522;28;20051;-60
2023/01/09 11:30:14;;;;;;;10.07;6.05;;;;;;;14.36;59.94;99194.53;5112601;28;20048;-61
2023/01/09 11:32:42;;;;;;;8.63;6.28;;;;;;;14.33;60.02;99196.53;5112349;28;20559;-60
2023/01/09 11:35:18;;;;;;;10.38;6.40;;;;;;;14.35;60.09;99198.22;5112288;28;20047;-61
2023/01/09 11:37:56;;;;;;;10.40;6.10;;;;;;;14.35;59.96;99192.84;5112373;28;20051;-60
2023/01/09 11:40:25;;;;;;;9.80;6.20;;;;;;;14.35;60.01;99187.47;5094141;28;20044;-61
2023/01/09 11:43:16;;;;;;;7.97;5.88;;;;;;;14.33;60.15;99190.31;5112315;28;20102;-60
2023/01/09 11:45:50;;;;;;;9.50;6.10;;;;;;;14.33;60.02;99193.00;5093938;28;20062;-60
2023/01/09 11:48:35;;;;;;;9.00;6.40;;;;;;;14.32;60.02;99185.94;5093920;28;20060;-60
2023/01/09 11:51:06;;;;;;;10.00;6.40;;;;;;;14.31;60.00;99184.25;5093722;28;20040;-60
2023/01/09 11:53:48;;;;;;;9.38;5.80;;;;;;;14.32;60.15;99183.25;5112248;28;20055;-60
2023/01/09 11:56:18;;;;;;;9.88;5.75;;;;;;;14.31;60.20;99182.41;5093810;28;20075;-60
2023/01/09 11:58:46;;;;;;;8.70;5.85;;;;;;;14.30;60.14;99179.88;5111830;28;20047;-60
2023/01/09 12:01:46;;;;;;;9.35;6.35;;;;;;;14.30;60.28;99174.50;5093694;28;20073;-60
2023/01/09 12:04:23;;;;;;;9.15;6.40;;;;;;;14.30;60.25;99179.88;5112112;28;20039;-60
2023/01/09 12:07:22;;;;;;;8.93;6.22;;;;;;;14.30;60.24;99185.25;5111528;28;20052;-60
2023/01/09 12:10:01;;;;;;;9.88;6.38;;;;;;;14.28;60.22;99171.97;5112028;28;20048;-60